Latest Weather Observations for Groote Eylandt Airport

IDD60801

Issued at 3:35 pm CST Saturday 25 October 2014 (issued every 30 minutes, with the page automatically refreshed every 10 minutes)

About weather observations | Map of weather stations | Latest weather observations for NT | Other Formats
Station Details ID: 014518 Name: GROOTE EYLANDT AIRPORT Lat: -13.97 Lon: 136.46 Height: 13.7 m
Data from the previous 72 hours. | See also: Recent months at Groote Eylandt Airport
Date/Time
CST
Temp
°C
App
Temp
°C
Dew
Point
Rel
Hum
%
Delta-T
°C
Wind Press
QNH
hPa
Press
MSL
hPa
Rain
since 9 am
mm
Dir
 
Spd
km/h
Gust
km/h
Spd
kts
Gust
kts
25/03:30pm 30.7 32.1 22.6 62 5.5 W 19 30 10 16 1012.4 1012.3 0.0
25/03:00pm 29.9 30.9 21.8 62 5.5 SW 19 30 10 16 1012.7 1012.6 0.0
25/02:30pm 31.0 31.9 20.9 55 6.7 S 17 28 9 15 1012.6 1012.5 0.0
25/02:00pm 33.1 30.1 13.7 31 11.8 E 22 39 12 21 1012.6 1012.5 0.0
25/01:30pm 31.9 33.4 19.8 48 8.0 SSE 11 20 6 11 1013.0 1012.9 0.0
25/01:00pm 33.2 34.1 16.5 36 10.6 SE 7 17 4 9 1013.5 1013.4 0.0
25/12:30pm 32.8 31.2 16.6 38 10.2 E 20 32 11 17 1014.1 1014.0 0.0
25/12:00pm 32.6 31.5 17.2 39 9.8 E 19 28 10 15 1014.3 1014.2 0.0
25/11:30am 32.4 32.4 18.2 42 9.2 NE 15 26 8 14 1014.7 1014.6 0.0
25/11:00am 32.7 32.6 18.8 43 9.1 E 17 32 9 17 1015.0 1014.9 0.0
25/10:30am 31.3 31.9 17.6 44 8.7 NNE 11 20 6 11 1015.3 1015.2 0.0
25/10:00am 31.8 31.6 17.7 43 9.0 ENE 15 20 8 11 1015.5 1015.4 0.0
25/09:30am 30.2 30.4 18.6 49 7.5 NE 15 26 8 14 1015.7 1015.6 0.0
25/09:00am 28.9 29.0 19.2 55 6.3 NNE 17 24 9 13 1015.8 1015.7 0.0
25/08:30am 28.3 29.2 20.1 61 5.4 NE 15 20 8 11 1015.8 1015.7 0.0
25/08:00am 27.1 28.9 21.8 73 3.5 ENE 15 20 8 11 1015.9 1015.8 0.0
25/07:30am 25.0 28.1 22.1 84 1.9 ENE 9 13 5 7 1015.5 1015.4 0.0
25/07:00am 22.0 24.3 19.9 88 1.3 E 7 9 4 5 1015.1 1015.0 0.0
25/06:30am 20.0 21.9 19.0 94 0.6 E 7 9 4 5 1014.6 1014.5 0.0
25/06:00am 19.0 20.8 18.2 95 0.5 E 6 7 3 4 1014.2 1014.1 0.0
25/05:30am 19.1 20.8 18.4 96 0.4 E 7 9 4 5 1013.8 1013.7 0.0
25/05:00am 19.3 21.1 18.8 97 0.3 ENE 7 11 4 6 1013.5 1013.4 0.0
25/04:30am 19.1 21.0 17.6 91 0.9 E 4 7 2 4 1013.1 1013.0 0.0
25/04:00am 19.1 21.2 18.1 94 0.6 SSE 4 7 2 4 1013.1 1013.0 0.0
25/03:30am 18.8 20.9 18.0 95 0.5 ESE 4 9 2 5 1012.9 1012.8 0.0
25/03:00am 19.4 22.1 18.7 96 0.4 E 2 6 1 3 1013.0 1012.9 0.0
25/02:30am 18.8 20.3 18.0 95 0.5 SSE 7 9 4 5 1013.0 1012.9 0.0
25/02:00am 19.0 20.7 18.0 94 0.6 E 6 9 3 5 1013.3 1013.2 0.0
25/01:30am 19.7 21.6 18.5 93 0.7 E 6 9 3 5 1013.5 1013.4 0.0
25/01:00am 19.9 23.0 18.6 92 0.8 CALM 0 0 0 0 1013.8 1013.7 0.0
25/12:30am 20.2 23.4 18.9 92 0.8 ESE 0 0 0 0 1014.2 1014.1 0.0
25/12:00am 20.7 24.0 19.2 91 0.9 ESE 0 0 0 0 1014.6 1014.5 0.0
 
Date/Time
CST
Temp
°C
App
Temp
°C
Dew
Point
Rel
Hum
%
Delta-T
°C
Wind Press
QNH
hPa
Press
MSL
hPa
Rain
since 9 am
mm
Dir
 
Spd
km/h
Gust
km/h
Spd
kts
Gust
kts
24/11:30pm 21.3 24.7 19.4 89 1.2 CALM 0 0 0 0 1015.0 1014.9 0.0
24/11:00pm 21.9 24.3 19.6 87 1.5 E 6 7 3 4 1015.2 1015.1 0.0
24/10:30pm 23.0 26.0 20.1 84 1.9 E 4 6 2 3 1015.3 1015.2 0.0
24/10:00pm 23.8 26.9 20.3 81 2.3 E 4 6 2 3 1015.3 1015.2 0.0
24/09:30pm 24.4 27.3 20.7 80 2.4 ESE 6 9 3 5 1014.9 1014.8 0.0
24/09:00pm 24.8 27.5 20.7 78 2.7 ESE 7 9 4 5 1014.6 1014.5 0.0
24/08:30pm 25.7 28.0 20.7 74 3.3 ESE 9 15 5 8 1014.1 1014.0 0.0
24/08:00pm 26.2 28.2 20.7 71 3.6 E 11 13 6 7 1013.8 1013.7 0.0
24/07:30pm 26.6 28.0 20.4 69 4.1 E 13 17 7 9 1013.4 1013.3 0.0
24/07:00pm 27.0 27.9 20.1 66 4.5 ENE 15 19 8 10 1012.9 1012.8 0.0
24/06:30pm 27.7 28.7 20.3 64 4.9 ENE 15 20 8 11 1012.8 1012.7 0.0
24/06:00pm 28.4 28.7 20.4 62 5.3 E 19 26 10 14 1012.3 1012.2 0.0
24/05:30pm 29.5 29.5 19.8 56 6.4 E 19 26 10 14 1011.7 1011.6 0.0
24/05:00pm 30.1 30.1 20.1 55 6.6 E 20 26 11 14 1011.6 1011.5 0.0
24/04:30pm 31.3 31.9 20.3 52 7.3 E 17 26 9 14 1011.4 1011.3 0.0
24/04:00pm 31.8 31.8 19.8 49 7.9 E 19 30 10 16 1011.3 1011.2 0.0
24/03:30pm 31.7 31.2 19.0 47 8.3 E 20 30 11 16 1011.4 1011.3 0.0
24/03:00pm 32.1 30.8 17.2 41 9.5 E 20 32 11 17 1011.6 1011.5 0.0
24/02:30pm 32.4 31.0 18.9 44 8.8 E 24 32 13 17 1011.9 1011.8 0.0
24/02:00pm 32.1 30.8 20.7 51 7.6 ENE 28 32 15 17 1012.3 1012.2 0.0
24/01:30pm 31.3 31.0 19.6 49 7.7 ENE 20 30 11 16 1012.5 1012.4 0.0
24/01:00pm 32.1 31.0 18.7 45 8.7 ENE 22 30 12 16 1012.9 1012.8 0.0
24/12:30pm 32.7 31.5 18.5 43 9.2 ENE 22 32 12 17 1013.4 1013.3 0.0
24/12:00pm 31.4 30.9 19.1 48 8.0 NE 20 35 11 19 1013.9 1013.8 0.0
24/11:30am 32.1 31.2 18.3 44 8.9 E 20 33 11 18 1014.2 1014.1 0.0
24/11:00am 33.4 32.7 18.7 41 9.6 ENE 20 32 11 17 1014.6 1014.5 0.0
24/10:30am 31.3 30.1 17.6 44 8.7 NNE 20 30 11 16 1014.7 1014.6 0.0
24/10:00am 31.2 29.2 18.2 46 8.4 E 26 33 14 18 1015.0 1014.9 0.0
24/09:30am 30.6 28.9 17.3 45 8.4 NE 22 30 12 16 1015.1 1015.0 0.0
24/09:00am 29.8 29.1 18.6 51 7.2 ENE 20 26 11 14 1015.1 1015.0 0.0
24/08:30am 27.9 28.1 20.2 63 5.0 NE 19 30 10 16 1015.2 1015.1 0.0
24/08:00am 27.0 28.5 22.0 74 3.4 NE 17 24 9 13 1015.3 1015.2 0.0
24/07:30am 24.4 27.1 21.3 83 2.0 E 9 13 5 7 1015.0 1014.9 0.0
24/07:00am 21.6 22.4 17.4 77 2.6 E 9 15 5 8 1014.7 1014.6 0.0
24/06:30am 18.4 19.4 16.9 91 0.9 E 7 9 4 5 1013.9 1013.8 0.0
24/06:00am 17.6 18.6 16.8 95 0.5 E 7 7 4 4 1013.4 1013.3 0.0
24/05:30am 17.4 19.3 16.8 96 0.4 E 2 7 1 4 1013.1 1013.0 0.0
24/05:00am 17.7 19.8 17.1 96 0.4 E 2 6 1 3 1012.7 1012.6 0.0
24/04:30am 17.7 20.3 17.4 98 0.2 CALM 0 0 0 0 1012.5 1012.4 0.0
24/04:16am 17.8 20.0 17.5 98 0.2 ESE 2 6 1 3 1012.4 1012.3 0.0
24/04:12am 17.7 19.5 17.4 98 0.2 ESE 4 6 2 3 1012.4 1012.3 0.0
24/04:00am 17.9 19.8 17.7 99 0.1 E 4 9 2 5 1012.4 1012.3 0.0
24/03:56am 17.9 20.6 17.7 99 0.1 CALM 0 7 0 4 1012.4 1012.3 0.0
24/03:35am 18.0 19.9 17.7 98 0.2 E 4 7 2 4 1012.2 1012.1 0.0
24/03:30am 18.1 20.4 17.8 98 0.2 E 2 7 1 4 1012.2 1012.1 0.0
24/03:00am 18.5 20.7 17.5 94 0.6 ENE 2 7 1 4 1012.3 1012.2 0.0
24/02:30am 19.2 22.1 18.2 94 0.6 CALM 0 0 0 0 1012.8 1012.7 0.0
24/02:00am 19.4 21.6 18.4 94 0.6 SSE 4 7 2 4 1013.1 1013.0 0.0
24/01:30am 20.0 23.2 18.8 93 0.8 CALM 0 0 0 0 1013.6 1013.5 0.0
24/01:00am 21.4 24.0 20.0 92 0.9 NE 6 9 3 5 1013.7 1013.6 0.0
24/12:30am 21.7 25.2 19.6 88 1.3 CALM 0 0 0 0 1013.9 1013.8 0.0
24/12:00am 22.0 24.6 20.1 89 1.2 E 6 6 3 3 1014.4 1014.3 0.0
 
Date/Time
CST
Temp
°C
App
Temp
°C
Dew
Point
Rel
Hum
%
Delta-T
°C
Wind Press
QNH
hPa
Press
MSL
hPa
Rain
since 9 am
mm
Dir
 
Spd
km/h
Gust
km/h
Spd
kts
Gust
kts
23/11:30pm 22.1 25.9 20.2 89 1.2 CALM 0 0 0 0 1014.8 1014.7 0.0
23/11:00pm 22.6 26.5 20.3 87 1.5 CALM 0 0 0 0 1015.1 1015.0 0.0
23/10:30pm 23.3 27.2 20.4 84 1.9 CALM 0 6 0 3 1015.1 1015.0 0.0
23/10:00pm 23.6 26.5 20.7 84 1.9 E 6 7 3 4 1014.9 1014.8 0.0
23/09:30pm 23.6 26.4 20.5 83 2.0 ESE 6 7 3 4 1014.6 1014.5 0.0
23/09:00pm 24.4 27.1 20.7 80 2.4 E 7 9 4 5 1014.1 1014.0 0.0
23/08:30pm 25.0 27.9 20.7 77 2.8 E 6 7 3 4 1013.7 1013.6 0.0
23/08:00pm 25.8 28.6 20.4 72 3.5 E 6 7 3 4 1013.6 1013.5 0.0
23/07:30pm 26.9 29.8 21.0 70 3.9 E 7 9 4 5 1013.4 1013.3 0.0
23/07:00pm 27.5 29.5 20.8 67 4.4 ENE 11 13 6 7 1013.1 1013.0 0.0
23/06:30pm 28.1 29.6 20.6 63 4.9 ENE 13 17 7 9 1012.8 1012.7 0.0
23/06:00pm 29.0 30.4 20.4 59 5.7 ENE 13 19 7 10 1012.3 1012.2 0.0
23/05:30pm 29.6 30.7 20.5 58 6.0 E 15 20 8 11 1011.9 1011.8 0.0
23/05:00pm 30.1 30.8 20.4 56 6.4 E 17 24 9 13 1011.6 1011.5 0.0
23/04:30pm 30.2 31.8 19.9 54 6.8 SE 11 20 6 11 1011.4 1011.3 0.0
23/04:00pm 31.2 32.1 18.5 46 8.2 ESE 11 17 6 9 1011.3 1011.2 0.0
23/03:30pm 31.8 32.8 17.7 43 9.0 SSW 9 15 5 8 1011.5 1011.4 0.0
23/03:00pm 31.7 33.8 20.9 52 7.2 SE 11 28 6 15 1011.6 1011.5 0.0
23/02:30pm 32.0 33.4 20.3 50 7.8 ESE 13 20 7 11 1011.6 1011.5 0.0
23/02:00pm 31.3 34.3 20.9 54 7.0 SSW 6 20 3 11 1011.9 1011.8 0.0
23/01:30pm 30.5 33.2 20.7 55 6.5 SE 7 15 4 8 1012.4 1012.3 0.0
23/01:00pm 30.5 32.6 21.0 57 6.3 SSW 11 24 6 13 1012.9 1012.8 0.0
23/12:30pm 32.0 31.3 15.5 37 10.2 SE 13 20 7 11 1013.4 1013.3 0.0
23/12:00pm 32.7 31.4 15.7 36 10.6 SE 17 30 9 16 1013.8 1013.7 0.0
23/11:30am 31.6 31.3 19.2 47 8.1 ESE 19 32 10 17 1013.9 1013.8 0.0
23/11:00am 31.4 33.0 19.1 48 8.0 E 9 19 5 10 1014.3 1014.2 0.0
23/10:30am 31.6 31.4 18.6 46 8.4 E 17 24 9 13 1014.5 1014.4 0.0
23/10:00am 31.2 30.9 19.2 48 7.8 ENE 19 28 10 15 1014.6 1014.5 0.0
23/09:30am 30.0 31.3 20.8 57 6.1 NE 15 20 8 11 1015.0 1014.9 0.0
23/09:00am 29.1 31.5 21.6 64 5.0 NNE 11 17 6 9 1014.9 1014.8 0.0
23/08:30am 27.6 29.9 22.1 72 3.7 NNE 13 17 7 9 1015.0 1014.9 0.0
23/08:00am 26.5 30.0 22.8 80 2.5 ENE 9 13 5 7 1014.7 1014.6 0.0
23/07:30am 24.1 27.5 21.6 86 1.7 ESE 6 9 3 5 1014.1 1014.0 0.0
23/07:00am 21.7 25.1 20.9 95 0.5 ESE 4 7 2 4 1013.7 1013.6 0.0
23/06:30am 19.9 21.9 19.2 96 0.4 E 7 11 4 6 1013.6 1013.5 0.0
23/06:00am 19.5 21.4 19.0 97 0.3 E 7 9 4 5 1013.3 1013.2 0.0
23/05:30am 18.9 21.5 18.4 97 0.3 SE 2 7 1 4 1013.0 1012.9 0.0
23/05:05am 19.1 21.8 18.6 97 0.3 SE 2 6 1 3 1012.9 1012.8 0.0
23/05:01am 19.1 21.8 18.6 97 0.3 SE 2 6 1 3 1012.9 1012.8 0.0
23/05:00am 19.1 21.8 18.6 97 0.3 SE 2 6 1 3 1012.8 1012.7 0.0
23/04:30am 19.5 22.8 19.2 98 0.2 CALM 0 0 0 0 1012.6 1012.5 0.0
23/04:25am 19.6 22.9 19.1 97 0.3 CALM 0 0 0 0 1012.5 1012.4 0.0
23/04:22am 19.1 22.0 18.3 95 0.5 CALM 0 0 0 0 1012.4 1012.3 0.0
23/04:02am 19.7 23.0 19.2 97 0.3 CALM 0 0 0 0 1012.4 1012.3 0.0
23/04:01am 19.7 23.0 19.2 97 0.3 CALM 0 0 0 0 1012.4 1012.3 0.0
23/04:00am 19.7 23.0 19.2 97 0.3 CALM 0 0 0 0 1012.4 1012.3 0.0
23/03:30am 19.6 22.6 18.4 93 0.7 CALM 0 0 0 0 1012.5 1012.4 0.0
23/03:00am 19.6 22.6 18.4 93 0.7 CALM 0 0 0 0 1012.7 1012.6 0.0
23/02:30am 20.9 23.0 19.0 89 1.2 E 6 7 3 4 1013.0 1012.9 0.0
23/02:00am 21.5 25.3 20.1 92 0.9 CALM 0 0 0 0 1013.1 1013.0 0.0
23/01:30am 21.2 25.0 20.2 94 0.6 CALM 0 0 0 0 1013.4 1013.3 0.0
23/01:00am 21.7 25.5 20.2 91 1.0 CALM 0 0 0 0 1014.0 1013.9 0.0
23/12:30am 22.0 26.0 20.5 91 1.0 CALM 0 0 0 0 1014.4 1014.3 0.0
23/12:00am 22.0 26.1 20.8 93 0.8 CALM 0 0 0 0 1014.7 1014.6 0.0
 
Date/Time
CST
Temp
°C
App
Temp
°C
Dew
Point
Rel
Hum
%
Delta-T
°C
Wind Press
QNH
hPa
Press
MSL
hPa
Rain
since 9 am
mm
Dir
 
Spd
km/h
Gust
km/h
Spd
kts
Gust
kts
22/11:30pm 22.0 25.4 21.0 94 0.7 ESE 4 11 2 6 1014.8 1014.7 0.0
22/11:00pm 22.4 26.3 20.3 88 1.4 CALM 0 0 0 0 1014.7 1014.6 0.0
22/10:30pm 22.8 26.8 20.5 87 1.5 CALM 0 0 0 0 1014.8 1014.7 0.0
22/10:00pm 23.6 27.7 20.7 84 1.9 CALM 0 0 0 0 1014.8 1014.7 0.0
22/09:30pm 24.1 28.3 21.0 83 2.0 CALM 0 0 0 0 1014.5 1014.4 0.0
22/09:00pm 25.0 28.2 21.3 80 2.4 E 6 7 3 4 1014.1 1014.0 0.0
22/08:30pm 26.3 29.8 21.9 77 2.9 E 6 7 3 4 1014.0 1013.9 0.0
22/08:00pm 26.8 29.5 22.2 76 3.1 E 11 13 6 7 1013.7 1013.6 0.0
22/07:30pm 27.3 29.2 22.0 73 3.6 ENE 15 20 8 11 1013.5 1013.4 0.0
22/07:00pm 28.0 29.9 21.3 67 4.5 ENE 13 20 7 11 1013.2 1013.1 0.0
22/06:30pm 28.9 30.6 20.9 62 5.3 E 13 17 7 9 1012.8 1012.7 0.0
22/06:00pm 29.9 31.4 20.5 57 6.2 ESE 13 20 7 11 1012.5 1012.4 0.0
22/05:30pm 30.8 31.2 19.8 52 7.2 E 17 22 9 12 1012.1 1012.0 0.0
22/05:00pm 31.6 32.1 19.2 47 8.1 ENE 15 24 8 13 1011.9 1011.8 0.0
22/04:30pm 32.2 31.3 17.7 42 9.3 ENE 19 26 10 14 1011.8 1011.7 0.0
22/04:00pm 32.3 30.8 15.3 35 10.5 ENE 17 24 9 13 1011.9 1011.8 0.0

Other Formats:

Comma delimited format used in spreadsheet applications
http://www.bom.gov.au/fwo/IDD60801/IDD60801.94153.axf

JavaScript Object Notation format (JSON) in row-major order
http://www.bom.gov.au/fwo/IDD60801/IDD60801.94153.json